sensor_id;sensor_type;location;lat;lon;timestamp;P1;durP1;ratioP1;P2;durP2;ratioP2
28836;SDS011;50669;50.982;11.022;2022-11-20T00:01:07;35.42;;;16.88;;
28836;SDS011;50669;50.982;11.022;2022-11-20T00:03:37;36.90;;;15.70;;
28836;SDS011;50669;50.982;11.022;2022-11-20T00:06:06;38.10;;;17.30;;
28836;SDS011;50669;50.982;11.022;2022-11-20T00:08:34;35.40;;;16.27;;
28836;SDS011;50669;50.982;11.022;2022-11-20T00:11:06;43.20;;;17.45;;
28836;SDS011;50669;50.982;11.022;2022-11-20T00:13:33;37.47;;;17.33;;
28836;SDS011;50669;50.982;11.022;2022-11-20T00:16:00;36.38;;;17.42;;
28836;SDS011;50669;50.982;11.022;2022-11-20T00:18:30;39.38;;;16.35;;
28836;SDS011;50669;50.982;11.022;2022-11-20T00:21:06;25.85;;;11.80;;
28836;SDS011;50669;50.982;11.022;2022-11-20T00:23:38;37.78;;;17.30;;
28836;SDS011;50669;50.982;11.022;2022-11-20T00:26:07;37.45;;;16.58;;
28836;SDS011;50669;50.982;11.022;2022-11-20T00:28:34;41.45;;;17.23;;
28836;SDS011;50669;50.982;11.022;2022-11-20T00:31:08;39.10;;;17.05;;
28836;SDS011;50669;50.982;11.022;2022-11-20T00:33:40;34.65;;;15.82;;
28836;SDS011;50669;50.982;11.022;2022-11-20T00:36:11;36.95;;;16.20;;
28836;SDS011;50669;50.982;11.022;2022-11-20T00:38:39;37.38;;;17.15;;
28836;SDS011;50669;50.982;11.022;2022-11-20T00:41:10;39.63;;;17.65;;
28836;SDS011;50669;50.982;11.022;2022-11-20T00:43:38;43.67;;;17.65;;
28836;SDS011;50669;50.982;11.022;2022-11-20T00:46:05;40.10;;;16.40;;
28836;SDS011;50669;50.982;11.022;2022-11-20T00:48:35;36.95;;;16.08;;
28836;SDS011;50669;50.982;11.022;2022-11-20T00:51:01;34.33;;;15.88;;
28836;SDS011;50669;50.982;11.022;2022-11-20T00:53:27;40.30;;;17.80;;
28836;SDS011;50669;50.982;11.022;2022-11-20T00:55:56;41.60;;;17.67;;
28836;SDS011;50669;50.982;11.022;2022-11-20T00:58:35;36.67;;;16.08;;
28836;SDS011;50669;50.982;11.022;2022-11-20T01:03:43;39.17;;;16.90;;
28836;SDS011;50669;50.982;11.022;2022-11-20T01:06:25;37.13;;;15.85;;
28836;SDS011;50669;50.982;11.022;2022-11-20T01:08:54;36.97;;;16.38;;
28836;SDS011;50669;50.982;11.022;2022-11-20T01:11:22;36.67;;;15.40;;
28836;SDS011;50669;50.982;11.022;2022-11-20T01:13:52;34.78;;;15.25;;
28836;SDS011;50669;50.982;11.022;2022-11-20T01:16:26;35.90;;;16.08;;
28836;SDS011;50669;50.982;11.022;2022-11-20T01:19:03;42.40;;;16.80;;
28836;SDS011;50669;50.982;11.022;2022-11-20T01:21:31;36.92;;;16.15;;
28836;SDS011;50669;50.982;11.022;2022-11-20T01:23:59;37.30;;;16.45;;
28836;SDS011;50669;50.982;11.022;2022-11-20T01:26:26;40.03;;;18.30;;
28836;SDS011;50669;50.982;11.022;2022-11-20T01:28:56;38.53;;;18.25;;
28836;SDS011;50669;50.982;11.022;2022-11-20T01:31:33;40.15;;;18.50;;
28836;SDS011;50669;50.982;11.022;2022-11-20T01:34:01;40.65;;;18.25;;
28836;SDS011;50669;50.982;11.022;2022-11-20T01:39:01;43.33;;;17.52;;
28836;SDS011;50669;50.982;11.022;2022-11-20T01:41:30;44.17;;;19.10;;
28836;SDS011;50669;50.982;11.022;2022-11-20T01:44:19;40.80;;;19.42;;
28836;SDS011;50669;50.982;11.022;2022-11-20T01:49:25;43.63;;;18.50;;
28836;SDS011;50669;50.982;11.022;2022-11-20T01:51:56;45.70;;;18.95;;
28836;SDS011;50669;50.982;11.022;2022-11-20T01:54:36;41.88;;;17.65;;
28836;SDS011;50669;50.982;11.022;2022-11-20T01:57:13;42.03;;;17.02;;
28836;SDS011;50669;50.982;11.022;2022-11-20T01:59:43;40.25;;;17.45;;
28836;SDS011;50669;50.982;11.022;2022-11-20T02:02:14;37.70;;;16.70;;
28836;SDS011;50669;50.982;11.022;2022-11-20T02:04:44;35.58;;;16.25;;
28836;SDS011;50669;50.982;11.022;2022-11-20T02:07:16;35.97;;;16.58;;
28836;SDS011;50669;50.982;11.022;2022-11-20T02:09:46;25.83;;;11.95;;
28836;SDS011;50669;50.982;11.022;2022-11-20T02:12:12;40.03;;;16.42;;
28836;SDS011;50669;50.982;11.022;2022-11-20T02:14:57;36.67;;;15.90;;
28836;SDS011;50669;50.982;11.022;2022-11-20T02:17:23;35.95;;;15.98;;
28836;SDS011;50669;50.982;11.022;2022-11-20T02:19:50;33.75;;;15.45;;
28836;SDS011;50669;50.982;11.022;2022-11-20T02:22:23;40.22;;;16.60;;
28836;SDS011;50669;50.982;11.022;2022-11-20T02:24:55;38.65;;;16.42;;
28836;SDS011;50669;50.982;11.022;2022-11-20T02:27:24;34.05;;;15.50;;
28836;SDS011;50669;50.982;11.022;2022-11-20T02:32:23;36.00;;;14.55;;
28836;SDS011;50669;50.982;11.022;2022-11-20T02:35:09;35.83;;;14.93;;
28836;SDS011;50669;50.982;11.022;2022-11-20T02:37:44;41.13;;;16.90;;
28836;SDS011;50669;50.982;11.022;2022-11-20T02:40:17;34.42;;;15.63;;
28836;SDS011;50669;50.982;11.022;2022-11-20T02:42:45;35.45;;;16.25;;
28836;SDS011;50669;50.982;11.022;2022-11-20T02:45:11;40.67;;;14.75;;
28836;SDS011;50669;50.982;11.022;2022-11-20T02:47:41;37.58;;;16.23;;
28836;SDS011;50669;50.982;11.022;2022-11-20T02:50:09;33.20;;;14.57;;
28836;SDS011;50669;50.982;11.022;2022-11-20T02:52:37;34.90;;;15.32;;
28836;SDS011;50669;50.982;11.022;2022-11-20T02:55:03;32.22;;;14.98;;
28836;SDS011;50669;50.982;11.022;2022-11-20T02:57:32;35.45;;;15.07;;
28836;SDS011;50669;50.982;11.022;2022-11-20T03:00:00;31.00;;;13.32;;
28836;SDS011;50669;50.982;11.022;2022-11-20T03:02:29;32.75;;;13.80;;
28836;SDS011;50669;50.982;11.022;2022-11-20T03:04:58;31.23;;;12.90;;
28836;SDS011;50669;50.982;11.022;2022-11-20T03:07:23;29.80;;;12.57;;
28836;SDS011;50669;50.982;11.022;2022-11-20T03:09:49;28.17;;;12.43;;
28836;SDS011;50669;50.982;11.022;2022-11-20T03:12:14;34.75;;;14.10;;
28836;SDS011;50669;50.982;11.022;2022-11-20T03:14:40;33.85;;;14.23;;
28836;SDS011;50669;50.982;11.022;2022-11-20T03:17:06;31.52;;;14.00;;
28836;SDS011;50669;50.982;11.022;2022-11-20T03:19:34;30.30;;;12.80;;
28836;SDS011;50669;50.982;11.022;2022-11-20T03:22:04;31.95;;;13.52;;
28836;SDS011;50669;50.982;11.022;2022-11-20T03:24:30;30.65;;;13.45;;
28836;SDS011;50669;50.982;11.022;2022-11-20T03:26:56;33.00;;;13.07;;
28836;SDS011;50669;50.982;11.022;2022-11-20T03:29:21;32.88;;;12.88;;
28836;SDS011;50669;50.982;11.022;2022-11-20T03:31:49;29.88;;;12.75;;
28836;SDS011;50669;50.982;11.022;2022-11-20T03:34:15;26.73;;;12.48;;
28836;SDS011;50669;50.982;11.022;2022-11-20T03:36:41;27.83;;;12.75;;
28836;SDS011;50669;50.982;11.022;2022-11-20T03:39:12;28.45;;;12.50;;
28836;SDS011;50669;50.982;11.022;2022-11-20T03:41:39;26.98;;;12.20;;
28836;SDS011;50669;50.982;11.022;2022-11-20T03:44:07;28.65;;;11.68;;
28836;SDS011;50669;50.982;11.022;2022-11-20T03:46:36;32.15;;;12.52;;
28836;SDS011;50669;50.982;11.022;2022-11-20T03:49:04;28.02;;;12.48;;
28836;SDS011;50669;50.982;11.022;2022-11-20T03:51:31;31.52;;;12.93;;
28836;SDS011;50669;50.982;11.022;2022-11-20T03:53:59;31.40;;;12.75;;
28836;SDS011;50669;50.982;11.022;2022-11-20T03:56:27;27.10;;;12.23;;
28836;SDS011;50669;50.982;11.022;2022-11-20T03:58:54;26.38;;;11.57;;
28836;SDS011;50669;50.982;11.022;2022-11-20T04:01:28;26.92;;;11.20;;
28836;SDS011;50669;50.982;11.022;2022-11-20T04:03:56;25.30;;;11.70;;
28836;SDS011;50669;50.982;11.022;2022-11-20T04:06:26;28.85;;;11.88;;
28836;SDS011;50669;50.982;11.022;2022-11-20T04:08:54;26.65;;;12.50;;
28836;SDS011;50669;50.982;11.022;2022-11-20T04:11:30;26.23;;;11.32;;
28836;SDS011;50669;50.982;11.022;2022-11-20T04:14:01;25.83;;;11.10;;
28836;SDS011;50669;50.982;11.022;2022-11-20T04:16:30;30.08;;;11.77;;
28836;SDS011;50669;50.982;11.022;2022-11-20T04:19:01;27.55;;;11.80;;
28836;SDS011;50669;50.982;11.022;2022-11-20T04:21:28;27.25;;;11.48;;
28836;SDS011;50669;50.982;11.022;2022-11-20T04:23:55;27.40;;;11.45;;
28836;SDS011;50669;50.982;11.022;2022-11-20T04:26:22;24.90;;;11.55;;
28836;SDS011;50669;50.982;11.022;2022-11-20T04:28:49;27.95;;;12.07;;
28836;SDS011;50669;50.982;11.022;2022-11-20T04:31:16;27.83;;;12.18;;
28836;SDS011;50669;50.982;11.022;2022-11-20T04:33:43;26.80;;;12.65;;
28836;SDS011;50669;50.982;11.022;2022-11-20T04:36:12;27.02;;;11.32;;
28836;SDS011;50669;50.982;11.022;2022-11-20T04:38:42;26.90;;;11.85;;
28836;SDS011;50669;50.982;11.022;2022-11-20T04:41:11;25.45;;;10.85;;
28836;SDS011;50669;50.982;11.022;2022-11-20T04:43:45;27.08;;;11.50;;
28836;SDS011;50669;50.982;11.022;2022-11-20T04:46:12;28.40;;;11.68;;
28836;SDS011;50669;50.982;11.022;2022-11-20T04:48:38;26.20;;;11.25;;
28836;SDS011;50669;50.982;11.022;2022-11-20T04:51:04;27.73;;;11.20;;
28836;SDS011;50669;50.982;11.022;2022-11-20T04:53:32;30.13;;;11.05;;
28836;SDS011;50669;50.982;11.022;2022-11-20T04:56:01;24.77;;;10.27;;
28836;SDS011;50669;50.982;11.022;2022-11-20T04:58:30;27.27;;;11.30;;
28836;SDS011;50669;50.982;11.022;2022-11-20T05:03:32;25.17;;;10.77;;
28836;SDS011;50669;50.982;11.022;2022-11-20T05:06:03;23.83;;;10.32;;
28836;SDS011;50669;50.982;11.022;2022-11-20T05:08:30;27.80;;;10.52;;
28836;SDS011;50669;50.982;11.022;2022-11-20T05:11:00;23.65;;;10.27;;
28836;SDS011;50669;50.982;11.022;2022-11-20T05:13:30;24.17;;;10.38;;
28836;SDS011;50669;50.982;11.022;2022-11-20T05:16:00;21.73;;;8.77;;
28836;SDS011;50669;50.982;11.022;2022-11-20T05:18:35;21.95;;;9.05;;
28836;SDS011;50669;50.982;11.022;2022-11-20T05:21:01;23.63;;;9.02;;
28836;SDS011;50669;50.982;11.022;2022-11-20T05:23:28;23.40;;;9.10;;
28836;SDS011;50669;50.982;11.022;2022-11-20T05:25:55;20.13;;;8.77;;
28836;SDS011;50669;50.982;11.022;2022-11-20T05:28:22;19.38;;;8.27;;
28836;SDS011;50669;50.982;11.022;2022-11-20T05:30:48;16.38;;;8.40;;
28836;SDS011;50669;50.982;11.022;2022-11-20T05:33:17;18.88;;;8.40;;
28836;SDS011;50669;50.982;11.022;2022-11-20T05:35:43;21.05;;;9.38;;
28836;SDS011;50669;50.982;11.022;2022-11-20T05:38:09;21.80;;;9.40;;
28836;SDS011;50669;50.982;11.022;2022-11-20T05:40:38;17.52;;;8.15;;
28836;SDS011;50669;50.982;11.022;2022-11-20T05:43:05;20.15;;;8.93;;
28836;SDS011;50669;50.982;11.022;2022-11-20T05:45:33;18.65;;;8.73;;
28836;SDS011;50669;50.982;11.022;2022-11-20T05:48:01;19.80;;;9.05;;
28836;SDS011;50669;50.982;11.022;2022-11-20T05:50:29;18.17;;;7.93;;
28836;SDS011;50669;50.982;11.022;2022-11-20T05:52:57;16.80;;;7.75;;
28836;SDS011;50669;50.982;11.022;2022-11-20T05:55:26;16.30;;;8.13;;
28836;SDS011;50669;50.982;11.022;2022-11-20T05:57:55;19.98;;;7.97;;
28836;SDS011;50669;50.982;11.022;2022-11-20T06:00:23;18.52;;;7.43;;
28836;SDS011;50669;50.982;11.022;2022-11-20T06:02:49;15.95;;;6.80;;
28836;SDS011;50669;50.982;11.022;2022-11-20T06:05:14;15.48;;;6.82;;
28836;SDS011;50669;50.982;11.022;2022-11-20T06:07:40;15.95;;;6.60;;
28836;SDS011;50669;50.982;11.022;2022-11-20T06:10:06;15.55;;;6.68;;
28836;SDS011;50669;50.982;11.022;2022-11-20T06:12:34;14.10;;;7.07;;
28836;SDS011;50669;50.982;11.022;2022-11-20T06:14:59;12.45;;;6.68;;
28836;SDS011;50669;50.982;11.022;2022-11-20T06:17:25;17.38;;;7.82;;
28836;SDS011;50669;50.982;11.022;2022-11-20T06:19:56;20.20;;;9.38;;
28836;SDS011;50669;50.982;11.022;2022-11-20T06:22:21;17.63;;;7.63;;
28836;SDS011;50669;50.982;11.022;2022-11-20T06:24:49;21.02;;;7.30;;
28836;SDS011;50669;50.982;11.022;2022-11-20T06:27:19;16.23;;;6.60;;
28836;SDS011;50669;50.982;11.022;2022-11-20T06:29:47;16.60;;;7.43;;
28836;SDS011;50669;50.982;11.022;2022-11-20T06:32:13;15.82;;;7.00;;
28836;SDS011;50669;50.982;11.022;2022-11-20T06:34:38;16.90;;;7.57;;
28836;SDS011;50669;50.982;11.022;2022-11-20T06:37:04;15.15;;;7.22;;
28836;SDS011;50669;50.982;11.022;2022-11-20T06:39:29;15.48;;;6.53;;
28836;SDS011;50669;50.982;11.022;2022-11-20T06:41:55;13.43;;;6.38;;
28836;SDS011;50669;50.982;11.022;2022-11-20T06:44:21;12.70;;;6.03;;
28836;SDS011;50669;50.982;11.022;2022-11-20T06:46:46;12.02;;;6.22;;
28836;SDS011;50669;50.982;11.022;2022-11-20T06:49:12;15.95;;;6.93;;
28836;SDS011;50669;50.982;11.022;2022-11-20T06:51:37;16.05;;;6.95;;
28836;SDS011;50669;50.982;11.022;2022-11-20T06:54:05;14.65;;;7.05;;
28836;SDS011;50669;50.982;11.022;2022-11-20T06:56:31;16.10;;;7.47;;
28836;SDS011;50669;50.982;11.022;2022-11-20T06:58:56;19.67;;;7.55;;
28836;SDS011;50669;50.982;11.022;2022-11-20T07:01:22;13.88;;;6.75;;
28836;SDS011;50669;50.982;11.022;2022-11-20T07:03:48;20.33;;;8.80;;
28836;SDS011;50669;50.982;11.022;2022-11-20T07:06:18;18.27;;;8.38;;
28836;SDS011;50669;50.982;11.022;2022-11-20T07:08:44;20.33;;;8.05;;
28836;SDS011;50669;50.982;11.022;2022-11-20T07:11:12;21.95;;;7.93;;
28836;SDS011;50669;50.982;11.022;2022-11-20T07:13:40;16.77;;;7.78;;
28836;SDS011;50669;50.982;11.022;2022-11-20T07:16:07;14.18;;;7.05;;
28836;SDS011;50669;50.982;11.022;2022-11-20T07:18:35;13.93;;;6.82;;
28836;SDS011;50669;50.982;11.022;2022-11-20T07:21:07;12.85;;;6.50;;
28836;SDS011;50669;50.982;11.022;2022-11-20T07:23:35;16.13;;;7.13;;
28836;SDS011;50669;50.982;11.022;2022-11-20T07:26:05;13.18;;;6.72;;
28836;SDS011;50669;50.982;11.022;2022-11-20T07:28:31;14.13;;;7.35;;
28836;SDS011;50669;50.982;11.022;2022-11-20T07:31:02;20.23;;;7.47;;
28836;SDS011;50669;50.982;11.022;2022-11-20T07:33:28;16.52;;;8.00;;
28836;SDS011;50669;50.982;11.022;2022-11-20T07:35:53;16.08;;;6.82;;
28836;SDS011;50669;50.982;11.022;2022-11-20T07:38:22;14.73;;;7.28;;
28836;SDS011;50669;50.982;11.022;2022-11-20T07:40:47;14.95;;;7.28;;
28836;SDS011;50669;50.982;11.022;2022-11-20T07:43:13;15.05;;;6.60;;
28836;SDS011;50669;50.982;11.022;2022-11-20T07:45:42;14.05;;;6.43;;
28836;SDS011;50669;50.982;11.022;2022-11-20T07:48:07;11.77;;;6.03;;
28836;SDS011;50669;50.982;11.022;2022-11-20T07:50:35;14.63;;;6.20;;
28836;SDS011;50669;50.982;11.022;2022-11-20T07:53:02;14.57;;;6.43;;
28836;SDS011;50669;50.982;11.022;2022-11-20T07:55:33;15.68;;;6.55;;
28836;SDS011;50669;50.982;11.022;2022-11-20T07:57:59;16.08;;;6.55;;
28836;SDS011;50669;50.982;11.022;2022-11-20T08:00:25;11.80;;;6.03;;
28836;SDS011;50669;50.982;11.022;2022-11-20T08:02:51;17.83;;;7.00;;
28836;SDS011;50669;50.982;11.022;2022-11-20T08:05:17;16.92;;;7.35;;
28836;SDS011;50669;50.982;11.022;2022-11-20T08:07:43;15.68;;;7.28;;
28836;SDS011;50669;50.982;11.022;2022-11-20T08:10:10;13.07;;;6.75;;
28836;SDS011;50669;50.982;11.022;2022-11-20T08:12:44;15.48;;;6.90;;
28836;SDS011;50669;50.982;11.022;2022-11-20T08:15:32;14.82;;;6.85;;
28836;SDS011;50669;50.982;11.022;2022-11-20T08:17:59;14.65;;;7.38;;
28836;SDS011;50669;50.982;11.022;2022-11-20T08:20:29;14.20;;;7.35;;
28836;SDS011;50669;50.982;11.022;2022-11-20T08:22:59;14.25;;;7.53;;
28836;SDS011;50669;50.982;11.022;2022-11-20T08:25:34;16.55;;;7.93;;
28836;SDS011;50669;50.982;11.022;2022-11-20T08:28:06;15.32;;;8.10;;
28836;SDS011;50669;50.982;11.022;2022-11-20T08:30:33;16.38;;;8.15;;
28836;SDS011;50669;50.982;11.022;2022-11-20T08:33:03;15.13;;;8.20;;
28836;SDS011;50669;50.982;11.022;2022-11-20T08:35:37;19.15;;;7.78;;
28836;SDS011;50669;50.982;11.022;2022-11-20T08:38:06;15.30;;;7.65;;
28836;SDS011;50669;50.982;11.022;2022-11-20T08:40:32;15.68;;;8.23;;
28836;SDS011;50669;50.982;11.022;2022-11-20T08:42:58;18.30;;;8.10;;
28836;SDS011;50669;50.982;11.022;2022-11-20T08:45:24;16.55;;;7.60;;
28836;SDS011;50669;50.982;11.022;2022-11-20T08:47:52;17.38;;;8.70;;
28836;SDS011;50669;50.982;11.022;2022-11-20T08:50:17;18.88;;;8.68;;
28836;SDS011;50669;50.982;11.022;2022-11-20T08:52:43;16.45;;;9.15;;
28836;SDS011;50669;50.982;11.022;2022-11-20T08:55:09;19.67;;;9.10;;
28836;SDS011;50669;50.982;11.022;2022-11-20T08:57:38;24.02;;;10.15;;
28836;SDS011;50669;50.982;11.022;2022-11-20T09:00:05;18.55;;;9.45;;
28836;SDS011;50669;50.982;11.022;2022-11-20T09:02:32;21.05;;;9.52;;
28836;SDS011;50669;50.982;11.022;2022-11-20T09:04:58;21.27;;;9.88;;
28836;SDS011;50669;50.982;11.022;2022-11-20T09:07:24;22.48;;;9.82;;
28836;SDS011;50669;50.982;11.022;2022-11-20T09:09:52;24.88;;;10.68;;
28836;SDS011;50669;50.982;11.022;2022-11-20T09:12:18;21.45;;;10.55;;
28836;SDS011;50669;50.982;11.022;2022-11-20T09:14:43;22.58;;;10.63;;
28836;SDS011;50669;50.982;11.022;2022-11-20T09:17:09;21.27;;;10.35;;
28836;SDS011;50669;50.982;11.022;2022-11-20T09:19:39;21.67;;;9.90;;
28836;SDS011;50669;50.982;11.022;2022-11-20T09:22:05;21.02;;;10.57;;
28836;SDS011;50669;50.982;11.022;2022-11-20T09:24:31;21.92;;;10.38;;
28836;SDS011;50669;50.982;11.022;2022-11-20T09:26:56;20.92;;;10.30;;
28836;SDS011;50669;50.982;11.022;2022-11-20T09:29:26;23.40;;;10.63;;
28836;SDS011;50669;50.982;11.022;2022-11-20T09:31:51;22.33;;;10.90;;
28836;SDS011;50669;50.982;11.022;2022-11-20T09:34:21;26.38;;;10.98;;
28836;SDS011;50669;50.982;11.022;2022-11-20T09:36:47;21.35;;;10.07;;
28836;SDS011;50669;50.982;11.022;2022-11-20T09:39:15;23.17;;;11.35;;
28836;SDS011;50669;50.982;11.022;2022-11-20T09:47:11;24.70;;;11.15;;
28836;SDS011;50669;50.982;11.022;2022-11-20T09:52:41;25.40;;;11.70;;
28836;SDS011;50669;50.982;11.022;2022-11-20T09:55:12;22.55;;;11.05;;
28836;SDS011;50669;50.982;11.022;2022-11-20T09:57:46;25.73;;;13.85;;
28836;SDS011;50669;50.982;11.022;2022-11-20T10:00:16;28.48;;;13.35;;
28836;SDS011;50669;50.982;11.022;2022-11-20T10:02:47;21.65;;;12.23;;
28836;SDS011;50669;50.982;11.022;2022-11-20T10:21:22;27.33;;;13.93;;
28836;SDS011;50669;50.982;11.022;2022-11-20T10:29:36;32.70;;;15.73;;
28836;SDS011;50669;50.982;11.022;2022-11-20T10:32:09;24.60;;;12.98;;
28836;SDS011;50669;50.982;11.022;2022-11-20T10:37:44;26.70;;;13.95;;
28836;SDS011;50669;50.982;11.022;2022-11-20T10:40:20;29.02;;;14.10;;
28836;SDS011;50669;50.982;11.022;2022-11-20T10:46:05;26.40;;;14.13;;
28836;SDS011;50669;50.982;11.022;2022-11-20T10:48:35;32.88;;;15.50;;
28836;SDS011;50669;50.982;11.022;2022-11-20T10:51:07;30.60;;;14.68;;
28836;SDS011;50669;50.982;11.022;2022-11-20T11:01:42;33.95;;;16.80;;
28836;SDS011;50669;50.982;11.022;2022-11-20T11:09:46;29.52;;;15.20;;
28836;SDS011;50669;50.982;11.022;2022-11-20T11:12:14;30.48;;;15.15;;
28836;SDS011;50669;50.982;11.022;2022-11-20T11:14:47;29.88;;;14.48;;
28836;SDS011;50669;50.982;11.022;2022-11-20T11:22:25;34.28;;;15.00;;
28836;SDS011;50669;50.982;11.022;2022-11-20T11:24:54;34.05;;;15.32;;
28836;SDS011;50669;50.982;11.022;2022-11-20T11:27:20;30.30;;;13.52;;
28836;SDS011;50669;50.982;11.022;2022-11-20T11:29:48;33.80;;;15.75;;
28836;SDS011;50669;50.982;11.022;2022-11-20T11:32:20;36.97;;;15.63;;
28836;SDS011;50669;50.982;11.022;2022-11-20T11:35:03;40.78;;;16.45;;
28836;SDS011;50669;50.982;11.022;2022-11-20T11:37:35;35.45;;;14.88;;
28836;SDS011;50669;50.982;11.022;2022-11-20T11:40:03;33.72;;;14.35;;
28836;SDS011;50669;50.982;11.022;2022-11-20T11:42:33;38.78;;;15.75;;
28836;SDS011;50669;50.982;11.022;2022-11-20T11:44:59;35.00;;;15.23;;
28836;SDS011;50669;50.982;11.022;2022-11-20T11:47:37;35.88;;;15.57;;
28836;SDS011;50669;50.982;11.022;2022-11-20T12:03:55;37.90;;;15.95;;
28836;SDS011;50669;50.982;11.022;2022-11-20T12:06:42;37.85;;;16.88;;
28836;SDS011;50669;50.982;11.022;2022-11-20T12:09:10;58.45;;;24.38;;
28836;SDS011;50669;50.982;11.022;2022-11-20T12:11:43;40.47;;;16.20;;
28836;SDS011;50669;50.982;11.022;2022-11-20T12:14:46;44.97;;;18.65;;
28836;SDS011;50669;50.982;11.022;2022-11-20T12:17:17;46.03;;;18.30;;
28836;SDS011;50669;50.982;11.022;2022-11-20T12:19:43;46.53;;;17.98;;
28836;SDS011;50669;50.982;11.022;2022-11-20T12:30:07;52.00;;;19.20;;
28836;SDS011;50669;50.982;11.022;2022-11-20T12:37:53;48.22;;;20.42;;
28836;SDS011;50669;50.982;11.022;2022-11-20T12:47:36;50.72;;;19.50;;
28836;SDS011;50669;50.982;11.022;2022-11-20T12:50:28;49.65;;;19.52;;
28836;SDS011;50669;50.982;11.022;2022-11-20T13:05:20;57.35;;;21.17;;
28836;SDS011;50669;50.982;11.022;2022-11-20T13:08:04;56.72;;;21.25;;
28836;SDS011;50669;50.982;11.022;2022-11-20T13:10:43;62.88;;;22.70;;
28836;SDS011;50669;50.982;11.022;2022-11-20T13:16:10;52.67;;;21.02;;
28836;SDS011;50669;50.982;11.022;2022-11-20T13:18:39;54.40;;;22.63;;
28836;SDS011;50669;50.982;11.022;2022-11-20T13:24:19;55.67;;;21.75;;
28836;SDS011;50669;50.982;11.022;2022-11-20T13:29:37;58.20;;;23.95;;
28836;SDS011;50669;50.982;11.022;2022-11-20T13:32:14;65.93;;;23.55;;
28836;SDS011;50669;50.982;11.022;2022-11-20T13:34:53;59.38;;;23.38;;
28836;SDS011;50669;50.982;11.022;2022-11-20T13:37:33;57.40;;;22.70;;
28836;SDS011;50669;50.982;11.022;2022-11-20T13:45:23;61.75;;;23.48;;
28836;SDS011;50669;50.982;11.022;2022-11-20T13:47:55;63.45;;;24.27;;
28836;SDS011;50669;50.982;11.022;2022-11-20T13:50:27;60.75;;;23.85;;
28836;SDS011;50669;50.982;11.022;2022-11-20T14:01:36;73.82;;;25.00;;
28836;SDS011;50669;50.982;11.022;2022-11-20T14:04:06;63.22;;;25.13;;
28836;SDS011;50669;50.982;11.022;2022-11-20T14:06:38;64.57;;;23.45;;
28836;SDS011;50669;50.982;11.022;2022-11-20T14:09:13;60.53;;;23.02;;
28836;SDS011;50669;50.982;11.022;2022-11-20T14:11:51;45.65;;;17.27;;
28836;SDS011;50669;50.982;11.022;2022-11-20T14:14:20;65.88;;;26.15;;
28836;SDS011;50669;50.982;11.022;2022-11-20T14:16:50;67.43;;;26.13;;
28836;SDS011;50669;50.982;11.022;2022-11-20T14:21:48;62.03;;;26.02;;
28836;SDS011;50669;50.982;11.022;2022-11-20T14:24:23;63.15;;;25.25;;
28836;SDS011;50669;50.982;11.022;2022-11-20T14:26:50;58.28;;;26.10;;
28836;SDS011;50669;50.982;11.022;2022-11-20T14:29:27;73.38;;;24.98;;
28836;SDS011;50669;50.982;11.022;2022-11-20T14:31:57;60.50;;;24.88;;
28836;SDS011;50669;50.982;11.022;2022-11-20T14:34:24;64.50;;;24.33;;
28836;SDS011;50669;50.982;11.022;2022-11-20T14:37:01;54.85;;;23.10;;
28836;SDS011;50669;50.982;11.022;2022-11-20T14:39:30;58.45;;;22.35;;
28836;SDS011;50669;50.982;11.022;2022-11-20T14:41:59;52.15;;;22.05;;
28836;SDS011;50669;50.982;11.022;2022-11-20T14:44:39;53.63;;;21.17;;
28836;SDS011;50669;50.982;11.022;2022-11-20T14:47:08;51.35;;;20.02;;
28836;SDS011;50669;50.982;11.022;2022-11-20T14:49:38;50.28;;;20.67;;
28836;SDS011;50669;50.982;11.022;2022-11-20T14:52:15;45.17;;;20.23;;
28836;SDS011;50669;50.982;11.022;2022-11-20T14:54:44;51.20;;;21.23;;
28836;SDS011;50669;50.982;11.022;2022-11-20T14:57:22;47.15;;;19.27;;
28836;SDS011;50669;50.982;11.022;2022-11-20T15:02:41;39.50;;;16.77;;
28836;SDS011;50669;50.982;11.022;2022-11-20T15:05:08;37.03;;;16.38;;
28836;SDS011;50669;50.982;11.022;2022-11-20T15:07:39;39.55;;;16.55;;
28836;SDS011;50669;50.982;11.022;2022-11-20T15:12:39;33.88;;;16.02;;
28836;SDS011;50669;50.982;11.022;2022-11-20T15:15:12;36.58;;;15.57;;
28836;SDS011;50669;50.982;11.022;2022-11-20T15:17:47;33.00;;;14.65;;
28836;SDS011;50669;50.982;11.022;2022-11-20T15:20:13;36.35;;;16.60;;
28836;SDS011;50669;50.982;11.022;2022-11-20T15:22:43;34.42;;;15.65;;
28836;SDS011;50669;50.982;11.022;2022-11-20T15:25:15;32.92;;;15.63;;
28836;SDS011;50669;50.982;11.022;2022-11-20T15:27:42;39.53;;;16.75;;
28836;SDS011;50669;50.982;11.022;2022-11-20T15:30:12;35.70;;;16.48;;
28836;SDS011;50669;50.982;11.022;2022-11-20T15:32:39;37.33;;;15.48;;
28836;SDS011;50669;50.982;11.022;2022-11-20T15:35:05;36.50;;;15.43;;
28836;SDS011;50669;50.982;11.022;2022-11-20T15:37:32;37.38;;;17.40;;
28836;SDS011;50669;50.982;11.022;2022-11-20T15:39:58;39.42;;;16.85;;
28836;SDS011;50669;50.982;11.022;2022-11-20T15:42:23;43.05;;;18.58;;
28836;SDS011;50669;50.982;11.022;2022-11-20T15:44:49;49.33;;;22.05;;
28836;SDS011;50669;50.982;11.022;2022-11-20T15:47:17;45.72;;;20.35;;
28836;SDS011;50669;50.982;11.022;2022-11-20T15:49:50;50.78;;;22.65;;
28836;SDS011;50669;50.982;11.022;2022-11-20T15:52:18;50.17;;;22.25;;
28836;SDS011;50669;50.982;11.022;2022-11-20T15:54:44;44.97;;;17.75;;
28836;SDS011;50669;50.982;11.022;2022-11-20T15:57:14;47.15;;;20.45;;
28836;SDS011;50669;50.982;11.022;2022-11-20T15:59:40;40.38;;;17.67;;
28836;SDS011;50669;50.982;11.022;2022-11-20T16:02:13;43.03;;;19.00;;
28836;SDS011;50669;50.982;11.022;2022-11-20T16:04:40;39.92;;;17.30;;
28836;SDS011;50669;50.982;11.022;2022-11-20T16:07:06;41.53;;;17.05;;
28836;SDS011;50669;50.982;11.022;2022-11-20T16:09:34;46.53;;;19.00;;
28836;SDS011;50669;50.982;11.022;2022-11-20T16:12:02;44.95;;;18.90;;
28836;SDS011;50669;50.982;11.022;2022-11-20T16:14:28;43.47;;;17.90;;
28836;SDS011;50669;50.982;11.022;2022-11-20T16:17:12;40.40;;;17.55;;
28836;SDS011;50669;50.982;11.022;2022-11-20T16:19:38;37.85;;;16.63;;
28836;SDS011;50669;50.982;11.022;2022-11-20T16:22:04;41.50;;;18.42;;
28836;SDS011;50669;50.982;11.022;2022-11-20T16:24:29;43.20;;;19.30;;
28836;SDS011;50669;50.982;11.022;2022-11-20T16:26:55;40.92;;;19.20;;
28836;SDS011;50669;50.982;11.022;2022-11-20T16:29:24;40.85;;;19.05;;
28836;SDS011;50669;50.982;11.022;2022-11-20T16:31:49;48.70;;;20.23;;
28836;SDS011;50669;50.982;11.022;2022-11-20T16:34:15;41.63;;;19.00;;
28836;SDS011;50669;50.982;11.022;2022-11-20T16:36:44;45.45;;;19.17;;
28836;SDS011;50669;50.982;11.022;2022-11-20T16:39:10;46.92;;;21.08;;
28836;SDS011;50669;50.982;11.022;2022-11-20T16:41:39;50.72;;;22.42;;
28836;SDS011;50669;50.982;11.022;2022-11-20T16:44:09;46.78;;;21.27;;
28836;SDS011;50669;50.982;11.022;2022-11-20T16:46:35;49.78;;;21.15;;
28836;SDS011;50669;50.982;11.022;2022-11-20T16:49:05;49.80;;;23.38;;
28836;SDS011;50669;50.982;11.022;2022-11-20T16:51:36;48.78;;;24.38;;